Time;durP1;ratioP1;P1;durP2;ratioP2;P2;SDS_P1;SDS_P2;PMS_P1;PMS_P2;Temp;Humidity;BMP_temperature;BMP_pressure;BME280_temperature;BME280_humidity;BME280_pressure;Samples;Min_cycle;Max_cycle;Signal;HPM_P1;HPM_P2
2023/11/19 00:04:40;;;;;;;9.10;8.60;;;9.60;99.90;;;;;;10328292;28;20290;-74
2023/11/19 00:10:09;;;;;;;8.17;7.77;;;9.60;99.90;;;;;;10302434;28;20235;-74
2023/11/19 00:15:30;;;;;;;9.27;8.77;;;9.70;99.90;;;;;;10292775;28;20211;-74
2023/11/19 00:20:52;;;;;;;9.33;8.83;;;9.70;99.90;;;;;;10309882;28;20240;-75
2023/11/19 00:26:14;;;;;;;10.20;9.70;;;9.80;99.90;;;;;;10317641;28;20203;-75
2023/11/19 00:31:37;;;;;;;9.30;8.90;;;9.80;99.90;;;;;;10314452;28;20215;-75
2023/11/19 00:36:58;;;;;;;9.40;9.00;;;9.90;99.90;;;;;;10311474;28;20623;-74
2023/11/19 00:42:19;;;;;;;9.20;8.70;;;10.00;99.90;;;;;;10292014;28;20218;-75
2023/11/19 00:47:39;;;;;;;9.10;8.70;;;10.00;99.90;;;;;;10301411;28;20206;-74
2023/11/19 00:53:03;;;;;;;9.60;9.20;;;10.00;99.90;;;;;;10289739;28;20249;-75
2023/11/19 00:58:23;;;;;;;9.70;9.30;;;10.10;99.90;;;;;;10309626;28;20227;-75
2023/11/19 01:03:44;;;;;;;9.80;9.40;;;10.20;99.90;;;;;;10285260;28;20219;-73
2023/11/19 01:09:08;;;;;;;8.93;8.57;;;10.20;99.90;;;;;;10327432;28;20712;-75
2023/11/19 01:14:29;;;;;;;9.00;8.60;;;10.20;99.90;;;;;;10320107;23;20199;-78
2023/11/19 01:19:50;;;;;;;8.70;8.30;;;10.20;99.90;;;;;;10297523;28;20610;-79
2023/11/19 01:25:12;;;;;;;8.13;7.73;;;10.30;99.90;;;;;;10292783;28;20709;-77
2023/11/19 01:30:33;;;;;;;9.03;8.63;;;10.40;99.90;;;;;;10292428;28;20187;-77
2023/11/19 01:35:53;;;;;;;8.07;7.77;;;10.40;99.90;;;;;;10277592;28;20290;-77
2023/11/19 01:41:15;;;;;;;7.90;7.60;;;10.50;99.90;;;;;;10277341;28;20220;-76
2023/11/19 01:46:37;;;;;;;7.87;7.57;;;10.50;99.90;;;;;;10274113;28;20224;-76
2023/11/19 01:51:58;;;;;;;7.63;7.33;;;10.60;99.90;;;;;;10282773;28;20200;-76
2023/11/19 01:57:23;;;;;;;7.93;7.63;;;10.70;99.90;;;;;;10274620;28;20224;-77
2023/11/19 02:02:45;;;;;;;8.27;7.97;;;10.70;99.90;;;;;;10265634;28;20613;-77
2023/11/19 02:08:06;;;;;;;7.67;7.33;;;10.70;99.90;;;;;;10287830;28;20303;-77
2023/11/19 02:13:29;;;;;;;7.93;7.63;;;10.70;99.90;;;;;;10268874;28;20192;-77
2023/11/19 02:18:49;;;;;;;8.90;8.47;;;10.80;99.90;;;;;;10287021;28;20721;-77
2023/11/19 02:24:15;;;;;;;7.97;7.60;;;10.80;99.90;;;;;;10274346;28;20709;-77
2023/11/19 02:29:37;;;;;;;8.10;7.80;;;10.90;99.90;;;;;;10289142;28;20937;-77
2023/11/19 02:34:57;;;;;;;7.80;7.50;;;10.80;99.90;;;;;;10291772;28;20220;-77
2023/11/19 02:40:18;;;;;;;8.00;7.70;;;10.80;99.90;;;;;;10285352;28;20207;-77
2023/11/19 02:45:40;;;;;;;8.17;7.73;;;10.80;99.90;;;;;;10282207;28;20227;-77
2023/11/19 02:51:00;;;;;;;8.90;8.50;;;10.80;99.90;;;;;;10278330;28;20199;-77
2023/11/19 02:56:25;;;;;;;7.93;7.63;;;10.80;99.90;;;;;;10287983;28;20314;-77
2023/11/19 03:01:50;;;;;;;9.17;8.70;;;10.80;99.90;;;;;;10283689;28;20219;-77
2023/11/19 03:07:10;;;;;;;8.07;7.73;;;10.80;99.90;;;;;;10271889;28;20595;-77
2023/11/19 03:12:31;;;;;;;8.00;7.60;;;10.80;99.90;;;;;;10286165;28;20204;-77
2023/11/19 03:17:54;;;;;;;7.97;7.60;;;10.90;99.90;;;;;;10286853;28;20235;-77
2023/11/19 03:23:14;;;;;;;9.03;8.53;;;10.90;99.90;;;;;;10287244;28;20227;-77
2023/11/19 03:28:35;;;;;;;8.57;8.17;;;10.90;99.90;;;;;;10272431;28;20223;-77
2023/11/19 03:33:57;;;;;;;8.80;8.40;;;11.00;99.90;;;;;;10299030;28;20191;-77
2023/11/19 03:39:17;;;;;;;9.50;9.10;;;11.00;99.90;;;;;;10300377;28;20753;-77
2023/11/19 03:44:38;;;;;;;10.57;9.57;;;11.00;99.90;;;;;;10298589;28;20223;-77
2023/11/19 03:50:00;;;;;;;9.17;8.57;;;11.00;99.90;;;;;;10300887;28;20207;-77
2023/11/19 03:55:20;;;;;;;8.97;8.57;;;11.00;99.90;;;;;;10300175;28;20227;-77
2023/11/19 04:00:41;;;;;;;8.93;8.53;;;11.00;99.90;;;;;;10300394;28;20246;-79
2023/11/19 04:06:04;;;;;;;8.60;8.30;;;11.00;99.90;;;;;;10300153;28;20235;-77
2023/11/19 04:11:24;;;;;;;7.87;7.57;;;11.00;99.90;;;;;;10285348;28;20200;-77
2023/11/19 04:16:46;;;;;;;7.93;7.73;;;11.10;99.90;;;;;;10294197;28;20653;-79
2023/11/19 04:22:08;;;;;;;7.47;7.27;;;11.10;99.90;;;;;;10309120;28;20238;-79
2023/11/19 04:27:29;;;;;;;7.37;7.17;;;11.20;99.90;;;;;;10308702;28;20282;-80
2023/11/19 04:32:50;;;;;;;7.07;6.87;;;11.20;99.90;;;;;;10296322;28;20203;-79
2023/11/19 04:38:12;;;;;;;6.90;6.70;;;11.30;99.90;;;;;;10307639;28;20701;-79
2023/11/19 04:43:33;;;;;;;6.40;6.20;;;11.30;99.90;;;;;;10275352;28;20224;-77
2023/11/19 04:48:53;;;;;;;6.00;5.90;;;11.30;99.90;;;;;;10292655;28;20220;-77
2023/11/19 04:54:15;;;;;;;5.13;5.03;;;11.40;99.90;;;;;;10292265;28;20681;-77
2023/11/19 04:59:35;;;;;;;5.70;5.57;;;11.50;99.90;;;;;;10286883;28;20240;-77
2023/11/19 05:04:56;;;;;;;5.90;5.70;;;11.50;99.90;;;;;;10290878;28;20337;-77
2023/11/19 05:10:18;;;;;;;5.53;5.43;;;11.50;99.90;;;;;;10292088;28;20212;-77
2023/11/19 05:15:38;;;;;;;5.20;5.10;;;11.60;99.90;;;;;;10276731;28;20251;-77
2023/11/19 05:20:59;;;;;;;5.50;5.30;;;11.60;99.90;;;;;;10291543;28;20211;-77
2023/11/19 05:26:22;;;;;;;5.40;5.30;;;11.70;99.90;;;;;;10291582;28;20309;-77
2023/11/19 05:31:42;;;;;;;5.40;5.30;;;11.70;99.90;;;;;;10291496;28;20310;-77
2023/11/19 05:37:05;;;;;;;5.60;5.50;;;11.70;99.90;;;;;;10290927;28;20713;-77
2023/11/19 05:42:27;;;;;;;5.40;5.30;;;11.80;99.90;;;;;;10291014;28;20220;-77
2023/11/19 05:47:47;;;;;;;5.10;5.00;;;11.90;99.90;;;;;;10290419;28;20235;-77
2023/11/19 05:53:10;;;;;;;5.60;5.30;;;11.90;99.90;;;;;;10291041;28;20278;-77
2023/11/19 05:58:32;;;;;;;4.83;4.73;;;11.90;99.90;;;;;;10290211;28;20314;-77
2023/11/19 06:03:53;;;;;;;4.70;4.50;;;12.00;99.90;;;;;;10279416;28;20227;-77
2023/11/19 06:09:13;;;;;;;4.97;4.87;;;12.00;99.90;;;;;;10290125;28;20603;-77
2023/11/19 06:14:35;;;;;;;4.30;4.20;;;12.00;99.90;;;;;;10289051;28;20239;-77
2023/11/19 06:19:56;;;;;;;4.97;4.87;;;12.10;99.90;;;;;;10286750;28;20204;-77
2023/11/19 06:25:16;;;;;;;5.33;5.13;;;12.10;99.90;;;;;;10288529;28;20220;-77
2023/11/19 06:30:39;;;;;;;5.80;5.60;;;12.20;99.90;;;;;;10289095;28;20208;-77
2023/11/19 06:36:00;;;;;;;5.13;4.93;;;12.20;99.90;;;;;;10288947;28;20236;-77
2023/11/19 06:41:21;;;;;;;4.60;4.40;;;12.30;99.90;;;;;;10288433;28;20223;-77
2023/11/19 06:46:43;;;;;;;4.60;4.50;;;12.30;99.90;;;;;;10288344;28;20310;-77
2023/11/19 06:52:04;;;;;;;4.53;4.43;;;12.40;99.90;;;;;;10288440;28;20287;-77
2023/11/19 06:57:25;;;;;;;4.63;4.53;;;;;;;;;;10273189;28;20232;-77
2023/11/19 07:02:46;;;;;;;4.70;4.60;;;12.40;99.90;;;;;;10287794;28;20223;-77
2023/11/19 07:08:08;;;;;;;4.60;4.50;;;12.40;99.90;;;;;;10286878;28;20721;-77
2023/11/19 07:13:28;;;;;;;4.20;4.10;;;12.50;99.90;;;;;;10281693;28;20203;-77
2023/11/19 07:18:51;;;;;;;3.93;3.83;;;12.50;99.90;;;;;;10366702;23;20226;-81
2023/11/19 07:24:12;;;;;;;3.70;3.60;;;12.50;99.90;;;;;;10367165;28;20411;-82
2023/11/19 07:29:33;;;;;;;3.97;3.87;;;12.50;99.90;;;;;;10338338;28;20231;-80
2023/11/19 07:34:56;;;;;;;3.97;3.87;;;12.60;99.90;;;;;;10346399;28;20528;-80
2023/11/19 07:40:17;;;;;;;4.20;4.07;;;12.70;99.90;;;;;;10354843;28;20204;-79
2023/11/19 07:45:37;;;;;;;4.00;3.80;;;12.70;99.90;;;;;;10319487;28;20224;-80
2023/11/19 07:50:59;;;;;;;3.70;3.60;;;12.70;99.90;;;;;;10355822;28;20210;-81
2023/11/19 07:56:20;;;;;;;3.67;3.57;;;12.80;99.90;;;;;;10327191;28;20220;-81
2023/11/19 08:01:40;;;;;;;3.50;3.40;;;12.80;99.90;;;;;;10327527;28;20222;-82
2023/11/19 08:07:02;;;;;;;3.77;3.67;;;12.80;99.90;;;;;;10342158;28;20227;-81
2023/11/19 08:12:23;;;;;;;3.83;3.67;;;12.80;99.90;;;;;;10353617;28;20192;-81
2023/11/19 08:17:43;;;;;;;3.70;3.60;;;12.90;99.90;;;;;;10348739;28;20231;-81
2023/11/19 08:23:05;;;;;;;4.10;3.90;;;13.00;99.90;;;;;;10355061;28;20696;-81
2023/11/19 08:28:25;;;;;;;3.97;3.77;;;13.00;99.90;;;;;;10355529;28;20277;-81
2023/11/19 08:33:46;;;;;;;3.67;3.53;;;13.00;99.90;;;;;;10354403;28;20202;-82
2023/11/19 08:39:09;;;;;;;3.77;3.57;;;13.10;99.90;;;;;;10360834;28;20214;-81
2023/11/19 08:44:29;;;;;;;3.37;3.27;;;13.20;99.90;;;;;;10343096;28;20215;-80
2023/11/19 08:49:52;;;;;;;3.20;3.10;;;13.30;99.90;;;;;;10348237;28;20260;-81
2023/11/19 08:55:14;;;;;;;3.60;3.37;;;13.40;99.90;;;;;;10349657;28;20250;-82
2023/11/19 09:00:35;;;;;;;3.20;3.10;;;13.50;99.90;;;;;;10350955;28;20202;-82
2023/11/19 09:05:56;;;;;;;3.30;3.20;;;13.60;99.90;;;;;;10347939;28;20301;-82
2023/11/19 09:11:18;;;;;;;3.63;3.43;;;13.60;99.90;;;;;;10373066;28;20605;-82
2023/11/19 09:16:38;;;;;;;3.50;3.20;;;13.50;99.90;;;;;;10349462;28;20230;-81
2023/11/19 09:21:59;;;;;;;3.37;3.27;;;13.60;99.90;;;;;;10351859;28;20218;-82
2023/11/19 09:27:21;;;;;;;3.60;3.40;;;13.70;99.90;;;;;;10352035;28;20222;-82
2023/11/19 09:32:42;;;;;;;3.20;3.10;;;13.70;99.90;;;;;;10355017;28;20191;-82
2023/11/19 09:38:05;;;;;;;3.20;3.10;;;13.80;99.90;;;;;;10365602;28;20222;-83
2023/11/19 09:43:29;;;;;;;3.00;2.90;;;13.90;99.90;;;;;;10361035;28;20210;-80
2023/11/19 09:48:52;;;;;;;4.13;3.83;;;14.10;99.90;;;;;;10356169;28;20215;-82
2023/11/19 09:54:13;;;;;;;3.17;3.07;;;14.30;99.90;;;;;;10353327;28;20195;-79
2023/11/19 09:59:35;;;;;;;3.00;2.80;;;14.00;99.90;;;;;;10352006;28;20302;-81
2023/11/19 10:04:56;;;;;;;3.10;3.00;;;13.80;99.90;;;;;;10360195;28;20716;-79
2023/11/19 10:10:19;;;;;;;4.93;2.90;;;13.90;99.90;;;;;;10345915;28;20576;-80
2023/11/19 10:15:41;;;;;;;3.07;2.80;;;14.00;99.90;;;;;;10353703;28;20580;-82
2023/11/19 10:21:01;;;;;;;2.80;2.70;;;14.10;99.90;;;;;;10354273;28;20211;-82
2023/11/19 10:26:22;;;;;;;2.93;2.73;;;14.20;99.90;;;;;;10338691;28;20223;-81
2023/11/19 10:31:57;;;;;;;3.10;2.90;;;14.30;99.90;;;;;;10356015;28;20203;-82
2023/11/19 10:37:29;;;;;;;4.00;2.73;;;14.50;99.90;;;;;;10354096;28;20211;-78
2023/11/19 10:42:51;;;;;;;3.87;3.60;;;14.60;99.90;;;;;;10351791;28;20854;-80
2023/11/19 10:48:13;;;;;;;2.60;2.40;;;14.60;99.90;;;;;;10356317;28;20218;-80
2023/11/19 10:53:36;;;;;;;2.40;2.30;;;14.60;99.90;;;;;;10353428;28;20668;-81
2023/11/19 10:58:59;;;;;;;2.93;2.83;;;14.50;99.90;;;;;;10363700;28;20218;-78
2023/11/19 11:04:24;;;;;;;2.90;2.50;;;14.50;99.90;;;;;;10358646;28;20222;-80
2023/11/19 11:09:46;;;;;;;3.00;2.90;;;14.50;99.90;;;;;;10325674;28;20203;-80
2023/11/19 11:15:08;;;;;;;2.40;2.30;;;14.50;99.90;;;;;;10320184;28;20219;-79
2023/11/19 11:20:30;;;;;;;2.53;2.43;;;14.60;99.90;;;;;;10331276;28;20294;-79
2023/11/19 11:26:01;;;;;;;2.30;2.20;;;14.70;99.90;;;;;;10333425;28;20219;-80
2023/11/19 11:31:32;;;;;;;2.37;2.27;;;14.80;99.90;;;;;;10345956;28;20219;-80
2023/11/19 11:37:07;;;;;;;2.80;2.50;;;14.80;99.90;;;;;;10339475;28;20215;-78
2023/11/19 11:42:41;;;;;;;2.97;2.50;;;14.80;99.90;;;;;;10325035;28;20218;-79
2023/11/19 11:48:16;;;;;;;1.90;1.80;;;14.80;99.90;;;;;;10321118;28;20218;-78
2023/11/19 11:53:37;;;;;;;2.20;2.10;;;14.60;99.90;;;;;;10339365;28;20215;-80
2023/11/19 11:58:59;;;;;;;2.20;2.10;;;14.50;99.90;;;;;;10342585;28;20218;-79
2023/11/19 12:04:20;;;;;;;2.27;2.07;;;14.70;99.90;;;;;;10327456;28;20226;-79
2023/11/19 12:09:42;;;;;;;2.17;2.07;;;14.70;99.90;;;;;;10339712;28;20630;-79
2023/11/19 12:15:10;;;;;;;2.13;1.90;;;14.60;99.90;;;;;;10318232;28;20238;-79
2023/11/19 12:20:37;;;;;;;3.63;2.27;;;14.70;99.90;;;;;;10336187;28;20203;-79
2023/11/19 12:26:00;;;;;;;2.30;2.13;;;14.80;99.90;;;;;;10337083;28;20215;-79
2023/11/19 12:31:20;;;;;;;1.70;1.60;;;14.90;99.90;;;;;;10338073;28;20602;-79
2023/11/19 12:36:42;;;;;;;2.40;2.20;;;15.00;99.90;;;;;;10343452;28;20219;-78
2023/11/19 12:42:05;;;;;;;2.30;2.10;;;14.90;99.90;;;;;;10343410;28;20195;-80
2023/11/19 12:47:25;;;;;;;2.30;2.10;;;14.80;99.90;;;;;;10347428;28;20461;-80
2023/11/19 12:52:56;;;;;;;3.10;1.83;;;14.70;99.90;;;;;;10347421;28;20191;-81
2023/11/19 12:58:36;;;;;;;1.70;1.60;;;14.60;99.90;;;;;;10325578;28;20219;-81
2023/11/19 13:03:57;;;;;;;3.50;1.80;;;14.60;99.90;;;;;;10364404;28;20218;-81
2023/11/19 13:09:25;;;;;;;2.13;1.93;;;14.60;99.90;;;;;;10330067;28;20219;-80
2023/11/19 13:14:49;;;;;;;1.80;1.70;;;14.50;99.90;;;;;;10328361;28;20238;-81
2023/11/19 13:20:11;;;;;;;2.20;1.73;;;14.60;99.90;;;;;;10327560;23;20227;-78
2023/11/19 13:25:32;;;;;;;3.17;1.90;;;14.60;99.90;;;;;;10313629;28;20681;-78
2023/11/19 13:30:54;;;;;;;5.17;1.83;;;14.70;99.90;;;;;;10305520;28;20208;-78
2023/11/19 13:36:15;;;;;;;3.43;1.97;;;14.60;99.90;;;;;;10307788;28;20227;-78
2023/11/19 13:41:35;;;;;;;1.60;1.50;;;14.60;99.90;;;;;;10288757;28;20604;-78
2023/11/19 13:46:57;;;;;;;2.00;1.90;;;14.50;99.90;;;;;;10313520;28;20223;-78
2023/11/19 13:52:18;;;;;;;1.83;1.73;;;14.40;99.90;;;;;;10312427;28;20199;-78
2023/11/19 13:57:40;;;;;;;1.90;1.80;;;14.40;99.90;;;;;;10323062;28;20218;-78
2023/11/19 14:03:02;;;;;;;1.80;1.70;;;14.30;99.90;;;;;;10314606;28;20718;-78
2023/11/19 14:08:22;;;;;;;1.97;1.80;;;14.30;99.90;;;;;;10325461;28;20215;-78
2023/11/19 14:13:43;;;;;;;3.80;1.80;;;14.20;99.90;;;;;;10329593;28;20195;-78
2023/11/19 14:19:05;;;;;;;2.30;1.70;;;14.20;99.90;;;;;;10329391;28;20222;-78
2023/11/19 14:24:26;;;;;;;2.00;1.90;;;14.10;99.90;;;;;;10331269;28;20219;-78
2023/11/19 14:29:46;;;;;;;2.20;2.10;;;14.00;99.90;;;;;;10331824;28;20695;-78
2023/11/19 14:35:09;;;;;;;1.80;1.70;;;14.00;99.90;;;;;;10332655;28;20214;-78
2023/11/19 14:40:29;;;;;;;2.33;2.10;;;14.00;99.90;;;;;;10321438;28;20321;-78
2023/11/19 14:45:50;;;;;;;7.00;2.80;;;13.90;99.90;;;;;;10297359;28;20219;-78
2023/11/19 14:51:12;;;;;;;2.70;2.60;;;13.90;99.90;;;;;;10314311;28;20211;-78
2023/11/19 14:56:33;;;;;;;2.00;1.90;;;13.80;99.90;;;;;;10317497;28;20233;-79
2023/11/19 15:01:54;;;;;;;2.43;2.23;;;13.90;99.90;;;;;;10336674;28;20203;-79
2023/11/19 15:07:15;;;;;;;1.90;1.80;;;13.80;99.90;;;;;;10325025;28;20219;-78
2023/11/19 15:12:39;;;;;;;2.20;2.10;;;13.80;99.90;;;;;;10336820;28;20211;-79
2023/11/19 15:18:00;;;;;;;1.90;1.80;;;13.70;99.90;;;;;;10328011;28;20235;-78
2023/11/19 15:23:22;;;;;;;3.63;2.13;;;13.70;99.90;;;;;;10316984;28;20293;-79
2023/11/19 15:28:42;;;;;;;2.10;2.00;;;13.70;99.90;;;;;;10324609;28;20223;-79
2023/11/19 15:34:03;;;;;;;2.03;1.93;;;13.60;99.90;;;;;;10329683;28;20668;-78
2023/11/19 15:39:26;;;;;;;2.40;2.00;;;13.60;99.90;;;;;;10308212;28;20226;-78
2023/11/19 15:44:47;;;;;;;1.93;1.83;;;13.50;99.90;;;;;;10304834;28;20257;-78
2023/11/19 15:50:10;;;;;;;1.67;1.57;;;13.50;99.90;;;;;;10290248;28;20613;-78
2023/11/19 15:55:31;;;;;;;2.07;1.97;;;13.40;99.90;;;;;;10302227;28;20582;-78
2023/11/19 16:00:52;;;;;;;2.20;1.97;;;13.40;99.90;;;;;;10315370;28;20206;-77
2023/11/19 16:06:13;;;;;;;2.30;2.10;;;13.40;99.90;;;;;;10310906;28;20226;-78
2023/11/19 16:11:34;;;;;;;2.00;1.90;;;13.40;99.90;;;;;;10309042;28;20199;-78
2023/11/19 16:16:55;;;;;;;1.87;1.77;;;13.30;99.90;;;;;;10326071;28;20231;-77
2023/11/19 16:22:15;;;;;;;2.60;2.20;;;13.30;99.90;;;;;;10304550;28;20202;-78
2023/11/19 16:27:39;;;;;;;2.73;2.10;;;13.20;99.90;;;;;;10319791;28;20570;-78
2023/11/19 16:32:59;;;;;;;2.27;2.07;;;13.20;99.90;;;;;;10315846;28;20211;-77
2023/11/19 16:38:20;;;;;;;2.07;1.97;;;13.10;99.90;;;;;;10321090;28;20219;-78
2023/11/19 16:43:42;;;;;;;2.73;2.23;;;13.10;99.90;;;;;;10319439;28;20223;-78
2023/11/19 16:49:04;;;;;;;3.00;2.80;;;13.00;99.90;;;;;;10327030;28;20231;-77
2023/11/19 16:54:24;;;;;;;2.30;2.20;;;13.00;99.90;;;;;;10318773;28;20673;-78
2023/11/19 16:59:48;;;;;;;2.60;2.20;;;13.00;99.90;;;;;;10315383;28;20570;-78
2023/11/19 17:05:09;;;;;;;2.60;2.40;;;13.00;99.90;;;;;;10307310;28;20515;-78
2023/11/19 17:10:29;;;;;;;2.87;2.30;;;12.90;99.90;;;;;;10316251;28;20202;-77
2023/11/19 17:15:51;;;;;;;2.13;2.03;;;12.90;99.90;;;;;;10323625;28;20226;-78
2023/11/19 17:21:13;;;;;;;2.50;2.30;;;12.90;99.90;;;;;;10310147;28;20195;-78
2023/11/19 17:26:33;;;;;;;2.60;2.50;;;12.80;99.90;;;;;;10327562;28;20227;-78
2023/11/19 17:31:55;;;;;;;2.63;2.53;;;12.80;99.90;;;;;;10338169;28;20203;-78
2023/11/19 17:37:17;;;;;;;3.10;3.00;;;12.70;99.90;;;;;;10316016;28;20219;-78
2023/11/19 17:42:38;;;;;;;2.93;2.73;;;12.70;99.90;;;;;;10330547;28;20203;-78
2023/11/19 17:48:00;;;;;;;3.13;2.83;;;12.70;99.90;;;;;;10325431;28;20709;-79
2023/11/19 17:53:20;;;;;;;3.60;2.80;;;12.70;99.90;;;;;;10314743;28;20195;-79
2023/11/19 17:58:41;;;;;;;5.30;3.37;;;12.70;99.90;;;;;;10316796;28;20708;-79
2023/11/19 18:04:03;;;;;;;3.53;2.50;;;12.70;99.90;;;;;;10313216;28;20598;-78
2023/11/19 18:09:23;;;;;;;2.13;1.97;;;12.70;99.90;;;;;;10293802;28;20227;-79
2023/11/19 18:14:44;;;;;;;2.87;2.67;;;12.70;99.90;;;;;;10322623;28;20191;-78
2023/11/19 18:20:08;;;;;;;3.33;2.53;;;12.70;99.90;;;;;;10307360;28;20230;-78
2023/11/19 18:25:28;;;;;;;6.87;3.10;;;12.70;99.90;;;;;;10326444;28;20283;-79
2023/11/19 18:30:49;;;;;;;2.70;2.50;;;12.70;99.90;;;;;;10320885;28;20698;-77
2023/11/19 18:36:12;;;;;;;2.87;2.60;;;12.70;99.90;;;;;;10310127;28;20211;-78
2023/11/19 18:41:32;;;;;;;3.57;2.77;;;12.70;99.90;;;;;;10307621;28;20203;-77
2023/11/19 18:46:53;;;;;;;2.83;2.73;;;12.70;99.90;;;;;;10309875;28;20218;-78
2023/11/19 18:52:14;;;;;;;2.40;2.20;;;12.70;99.90;;;;;;10315683;28;20257;-78
2023/11/19 18:57:35;;;;;;;2.70;2.50;;;12.70;99.90;;;;;;10300900;28;20337;-77
2023/11/19 19:02:56;;;;;;;3.10;2.87;;;12.70;99.90;;;;;;10300440;28;20203;-78
2023/11/19 19:08:18;;;;;;;5.10;3.87;;;12.70;99.90;;;;;;10323870;28;20231;-78
2023/11/19 19:13:38;;;;;;;3.70;3.50;;;12.70;99.90;;;;;;10317694;28;20199;-77
2023/11/19 19:18:59;;;;;;;4.10;3.30;;;12.80;99.90;;;;;;10334148;23;20549;-80
2023/11/19 19:24:24;;;;;;;5.90;5.40;;;12.80;99.90;;;;;;10311420;28;20215;-80
2023/11/19 19:29:44;;;;;;;4.77;4.00;;;12.80;99.90;;;;;;10292474;28;20251;-79
2023/11/19 19:35:05;;;;;;;3.20;3.00;;;12.80;99.90;;;;;;10327971;28;20411;-79
2023/11/19 19:40:28;;;;;;;3.10;2.90;;;12.80;99.90;;;;;;10317686;28;20211;-80
2023/11/19 19:45:49;;;;;;;3.70;3.40;;;12.80;99.90;;;;;;10298750;28;20222;-79
2023/11/19 19:51:11;;;;;;;7.43;3.27;;;12.90;99.90;;;;;;10301414;28;20215;-80
2023/11/19 19:56:33;;;;;;;7.60;4.60;;;12.90;99.90;;;;;;10294177;28;20568;-80
2023/11/19 20:01:54;;;;;;;3.37;2.80;;;12.90;99.90;;;;;;10292962;28;20689;-81
2023/11/19 20:07:15;;;;;;;7.40;4.30;;;12.90;99.90;;;;;;10290790;28;20219;-80
2023/11/19 20:12:37;;;;;;;3.73;3.07;;;12.90;99.90;;;;;;10291397;28;20215;-79
2023/11/19 20:17:57;;;;;;;3.90;3.53;;;12.80;99.90;;;;;;10296886;28;20287;-79
2023/11/19 20:23:18;;;;;;;6.27;4.03;;;12.80;99.90;;;;;;10296254;28;20205;-81
2023/11/19 20:28:40;;;;;;;6.47;4.37;;;12.60;99.90;;;;;;10299660;28;20219;-81
2023/11/19 20:34:01;;;;;;;3.97;3.77;;;12.50;99.90;;;;;;10293934;28;20196;-81
2023/11/19 20:39:22;;;;;;;3.70;3.40;;;12.40;99.90;;;;;;10290972;28;20231;-80
2023/11/19 20:44:45;;;;;;;4.37;4.00;;;12.30;99.90;;;;;;10292510;28;20597;-81
2023/11/19 20:50:07;;;;;;;4.37;4.07;;;12.30;99.90;;;;;;10294715;28;20219;-80
2023/11/19 20:55:32;;;;;;;7.77;4.57;;;12.10;99.90;;;;;;10305950;28;20211;-81
2023/11/19 21:00:54;;;;;;;4.33;3.87;;;12.10;99.90;;;;;;10282963;28;20235;-81
2023/11/19 21:06:16;;;;;;;7.50;4.30;;;12.00;99.90;;;;;;10305783;28;20223;-79
2023/11/19 21:11:36;;;;;;;10.60;4.43;;;12.00;99.90;;;;;;10287771;28;20676;-79
2023/11/19 21:16:58;;;;;;;5.93;3.80;;;11.90;99.90;;;;;;10291137;28;20701;-80
2023/11/19 21:22:20;;;;;;;3.90;3.60;;;11.90;99.90;;;;;;10299551;28;20199;-80
2023/11/19 21:27:40;;;;;;;8.10;4.30;;;11.80;99.90;;;;;;10296525;28;20216;-79
2023/11/19 21:33:04;;;;;;;8.57;3.70;;;11.80;99.90;;;;;;10309573;28;20212;-78
2023/11/19 21:38:25;;;;;;;8.87;3.97;;;11.80;99.90;;;;;;10285939;28;20255;-80
2023/11/19 21:43:45;;;;;;;6.27;3.70;;;11.90;99.90;;;;;;10292562;28;20200;-80
2023/11/19 21:49:07;;;;;;;7.70;3.67;;;11.90;99.90;;;;;;10289748;28;20220;-80
2023/11/19 21:54:28;;;;;;;6.83;3.73;;;11.90;99.90;;;;;;10297659;28;20204;-81
2023/11/19 21:59:49;;;;;;;7.23;3.60;;;11.90;99.90;;;;;;10294242;28;20302;-81
2023/11/19 22:05:11;;;;;;;8.30;3.87;;;11.90;99.90;;;;;;10277098;28;20212;-80
2023/11/19 22:10:31;;;;;;;7.73;3.43;;;11.90;99.90;;;;;;10287199;28;20239;-81
2023/11/19 22:15:52;;;;;;;8.03;3.10;;;11.90;99.90;;;;;;10295786;28;20673;-80
2023/11/19 22:21:14;;;;;;;7.13;3.30;;;11.90;99.90;;;;;;10296883;28;20232;-79
2023/11/19 22:26:35;;;;;;;8.20;3.33;;;12.00;99.90;;;;;;10279008;28;20709;-80
2023/11/19 22:31:55;;;;;;;19.20;3.77;;;11.90;99.90;;;;;;10290345;28;20420;-81
2023/11/19 22:37:18;;;;;;;6.83;3.37;;;11.90;99.90;;;;;;10288118;28;20716;-80
2023/11/19 22:42:38;;;;;;;7.40;3.27;;;11.90;99.90;;;;;;10294815;28;20609;-80
2023/11/19 22:48:00;;;;;;;10.90;3.40;;;11.80;99.90;;;;;;10284942;28;20227;-80
2023/11/19 22:53:22;;;;;;;6.40;3.33;;;11.80;99.90;;;;;;10292869;28;20591;-80
2023/11/19 22:58:44;;;;;;;5.27;3.10;;;11.80;99.90;;;;;;10295219;28;20220;-79
2023/11/19 23:04:06;;;;;;;6.30;3.83;;;11.80;99.90;;;;;;10297807;28;20196;-78
2023/11/19 23:09:28;;;;;;;8.23;3.80;;;11.80;99.90;;;;;;10288057;28;20227;-80
2023/11/19 23:14:48;;;;;;;15.47;4.47;;;11.80;99.90;;;;;;10290975;28;20597;-80
2023/11/19 23:20:12;;;;;;;7.43;3.43;;;11.70;99.90;;;;;;10283425;28;20259;-81
2023/11/19 23:25:34;;;;;;;7.37;3.40;;;11.70;99.90;;;;;;10295570;28;20222;-80
2023/11/19 23:30:55;;;;;;;7.10;3.53;;;11.70;99.90;;;;;;10284792;28;20231;-79
2023/11/19 23:36:16;;;;;;;9.73;3.63;;;11.70;99.90;;;;;;10303025;28;20674;-80
2023/11/19 23:41:37;;;;;;;13.13;4.23;;;11.70;99.90;;;;;;10291868;28;20231;-79
2023/11/19 23:46:58;;;;;;;10.50;3.70;;;11.70;99.90;;;;;;10296264;28;20696;-80
2023/11/19 23:52:18;;;;;;;9.10;4.50;;;11.70;99.90;;;;;;10302888;28;20651;-79
2023/11/19 23:57:40;;;;;;;7.20;3.17;;;11.60;99.90;;;;;;10322924;28;20674;-78
